KPVE

Beech River Regional Airport

Lexington-Parsons, Tennessee, USA
METAR KPVE 232315Z AUTO 27008KT 10SM OVC031 05/M01 A3019 RMK A01
Observed Flight Rules
Jan-23 @ 23:15 UTC (22 minutes ago) Visual Flight Rules
Wind Visibility Clouds
270° at 8 knots 10 miles
  • Overcast at 3,100' AGL
Temperatures Readings
Current 5°C / 41°F
Dewpoint -1°C / 30°F
Humidity 66%
Altimeter 30.19" Hg
Pressure 1022 hPa
Elevation 149
METAR KPVE 232315Z AUTO 27008KT 10SM OVC031 05/M01 A3019 RMK A01
Observed Flight Rules
Jan-23 @ 23:15 UTC
(22 minutes ago)
VFR
Wind Visibility
270° at 8 knots 10 miles
Clouds
  • Overcast at 3,100' AGL
Temperature Dewpoint
5°C / 41°F -1°C / 30°F
Humidity Altimeter Pressure
66% 30.19" Hg 1022 hPa